Time;durP1;ratioP1;P1;durP2;ratioP2;P2;SDS_P1;SDS_P2;PMS_P1;PMS_P2;Temp;Humidity;BMP_temperature;BMP_pressure;BME280_temperature;BME280_humidity;BME280_pressure;Samples;Min_cycle;Max_cycle;Signal;HPM_P1;HPM_P2
2023/12/04 00:02:02;;;;;;;3.63;1.02;;;22.00;71.60;;;;;;5077324;28;20553;-79
2023/12/04 00:04:29;;;;;;;4.15;1.00;;;22.00;70.70;;;;;;5069420;28;20068;-78
2023/12/04 00:06:56;;;;;;;3.00;0.98;;;21.90;69.50;;;;;;5074579;28;20032;-80
2023/12/04 00:09:24;;;;;;;2.78;1.00;;;21.90;69.50;;;;;;5070675;28;20040;-79
2023/12/04 00:11:52;;;;;;;3.00;0.77;;;22.00;69.80;;;;;;5069127;28;20033;-81
2023/12/04 00:14:19;;;;;;;21.05;4.00;;;21.90;69.80;;;;;;5077886;28;20035;-78
2023/12/04 00:16:46;;;;;;;6.15;2.15;;;21.90;71.00;;;;;;5072175;28;20028;-77
2023/12/04 00:19:14;;;;;;;2.65;0.90;;;21.90;75.80;;;;;;5070171;28;20532;-78
2023/12/04 00:21:41;;;;;;;6.07;1.00;;;21.70;76.50;;;;;;5073645;28;20479;-78
2023/12/04 00:24:09;;;;;;;3.60;1.02;;;21.50;77.10;;;;;;5073832;28;20480;-79
2023/12/04 00:26:36;;;;;;;3.13;0.70;;;21.40;77.30;;;;;;5072131;28;20116;-77
2023/12/04 00:29:03;;;;;;;2.05;0.70;;;21.30;75.40;;;;;;5077459;28;20021;-77
2023/12/04 00:31:31;;;;;;;5.53;0.90;;;21.20;73.80;;;;;;5074318;28;20391;-81
2023/12/04 00:33:59;;;;;;;6.82;1.33;;;21.20;73.20;;;;;;5060999;28;20472;-81
2023/12/04 00:36:27;;;;;;;3.75;0.98;;;21.30;72.70;;;;;;5071115;28;20024;-77
2023/12/04 00:38:54;;;;;;;4.05;0.90;;;21.30;73.10;;;;;;5064349;28;20379;-79
2023/12/04 00:41:22;;;;;;;2.63;0.65;;;21.40;73.30;;;;;;5065759;28;20123;-79
2023/12/04 00:43:49;;;;;;;4.70;0.95;;;21.60;71.70;;;;;;5069089;28;20112;-79
2023/12/04 00:46:16;;;;;;;4.25;1.00;;;21.70;69.90;;;;;;5066328;28;20031;-78
2023/12/04 00:48:46;;;;;;;3.65;0.80;;;21.80;69.20;;;;;;5073777;28;20675;-77
2023/12/04 00:51:13;;;;;;;4.75;0.80;;;21.80;69.60;;;;;;5073578;28;20032;-78
2023/12/04 00:53:40;;;;;;;4.78;1.00;;;21.80;68.30;;;;;;5073833;28;20028;-81
2023/12/04 00:56:08;;;;;;;2.85;0.85;;;21.80;67.80;;;;;;5066765;28;20028;-83
2023/12/04 00:58:36;;;;;;;4.55;0.85;;;21.80;67.70;;;;;;5064396;28;20047;-78
2023/12/04 01:01:03;;;;;;;1.17;0.60;;;21.80;68.70;;;;;;5071785;28;20434;-79
2023/12/04 01:03:32;;;;;;;3.20;0.77;;;21.80;69.60;;;;;;5073962;28;20024;-79
2023/12/04 01:06:00;;;;;;;3.22;0.90;;;21.90;69.60;;;;;;5073338;28;20044;-83
2023/12/04 01:08:28;;;;;;;4.75;0.70;;;21.90;67.80;;;;;;5073519;28;20060;-81
2023/12/04 01:10:55;;;;;;;3.55;0.60;;;21.90;67.00;;;;;;5072465;28;20384;-78
2023/12/04 01:13:22;;;;;;;2.05;0.73;;;22.00;67.80;;;;;;5071247;28;20052;-77
2023/12/04 01:15:50;;;;;;;3.00;0.80;;;22.00;68.30;;;;;;5063546;28;20024;-78
2023/12/04 01:18:18;;;;;;;2.20;0.75;;;22.00;68.50;;;;;;5071459;28;20458;-77
2023/12/04 01:20:46;;;;;;;0.65;0.60;;;22.10;69.20;;;;;;5071444;28;20036;-77
2023/12/04 01:23:14;;;;;;;2.70;0.88;;;22.00;69.00;;;;;;5063466;28;20028;-78
2023/12/04 01:25:41;;;;;;;0.88;0.50;;;22.10;69.50;;;;;;5066452;28;20021;-77
2023/12/04 01:28:09;;;;;;;1.63;0.63;;;22.10;68.90;;;;;;5067800;28;20051;-78
2023/12/04 01:30:36;;;;;;;3.13;0.50;;;22.10;68.70;;;;;;5070309;28;20396;-83
2023/12/04 01:33:08;;;;;;;5.30;0.88;;;22.10;68.50;;;;;;5070973;28;20514;-78
2023/12/04 01:35:35;;;;;;;1.98;0.80;;;22.20;69.10;;;;;;5053625;28;20392;-77
2023/12/04 01:38:03;;;;;;;3.08;0.73;;;22.20;68.20;;;;;;5065575;28;20028;-81
2023/12/04 01:40:30;;;;;;;4.18;0.68;;;22.20;67.30;;;;;;5072036;28;20447;-82
2023/12/04 01:42:58;;;;;;;1.67;0.60;;;22.30;67.70;;;;;;5069973;28;20044;-80
2023/12/04 01:45:25;;;;;;;3.60;0.80;;;22.40;67.70;;;;;;5070428;28;20387;-77
2023/12/04 01:47:53;;;;;;;3.70;0.63;;;22.60;66.30;;;;;;5072273;28;20082;-80
2023/12/04 01:50:21;;;;;;;2.33;0.75;;;22.60;65.30;;;;;;5074391;28;20025;-79
2023/12/04 01:52:49;;;;;;;2.80;0.70;;;22.80;66.10;;;;;;5067834;28;20025;-82
2023/12/04 01:55:18;;;;;;;1.48;0.77;;;22.90;64.70;;;;;;5069281;28;20495;-81
2023/12/04 01:57:47;;;;;;;3.92;0.70;;;23.00;63.40;;;;;;5060835;28;20112;-81
2023/12/04 02:00:15;;;;;;;1.88;0.60;;;23.10;63.00;;;;;;5068585;28;20040;-81
2023/12/04 02:02:43;;;;;;;1.83;0.50;;;23.10;63.10;;;;;;5073094;28;20036;-78
2023/12/04 02:05:13;;;;;;;2.08;0.70;;;23.00;62.90;;;;;;5070889;28;20052;-84
2023/12/04 02:07:43;;;;;;;0.90;0.45;;;23.00;63.10;;;;;;5070993;28;20064;-86
2023/12/04 02:10:15;;;;;;;2.13;0.60;;;23.20;64.40;;;;;;5076466;28;20589;-86
2023/12/04 02:12:43;;;;;;;1.55;0.50;;;23.20;62.50;;;;;;5069295;28;20472;-78
2023/12/04 02:15:10;;;;;;;3.42;0.60;;;23.20;62.80;;;;;;5063594;28;20545;-77
2023/12/04 02:17:39;;;;;;;6.00;0.80;;;23.20;62.60;;;;;;5064278;28;20056;-86
2023/12/04 02:20:09;;;;;;;2.60;0.90;;;23.30;62.80;;;;;;5073407;28;20473;-80
2023/12/04 02:22:38;;;;;;;2.50;0.70;;;23.50;62.90;;;;;;5071677;28;20020;-77
2023/12/04 02:25:08;;;;;;;1.85;0.65;;;23.50;62.10;;;;;;5069932;28;20119;-77
2023/12/04 02:27:53;;;;;;;0.45;0.40;;;23.50;61.30;;;;;;5070685;28;20047;-79
2023/12/04 02:30:27;;;;;;;1.58;0.50;;;23.50;62.20;;;;;;5070822;28;20060;-78
2023/12/04 02:33:01;;;;;;;2.05;0.75;;;23.50;61.90;;;;;;5072305;28;20016;-78
2023/12/04 02:35:33;;;;;;;3.20;0.77;;;23.40;60.30;;;;;;5072425;28;20514;-78
2023/12/04 02:38:06;;;;;;;0.90;0.60;;;23.50;60.60;;;;;;5072489;28;20031;-78
2023/12/04 02:40:34;;;;;;;0.95;0.40;;;23.40;61.60;;;;;;5072669;28;20020;-83
2023/12/04 02:43:02;;;;;;;4.95;0.90;;;23.30;61.00;;;;;;5072580;28;20056;-89
2023/12/04 02:45:30;;;;;;;4.68;0.68;;;23.40;62.40;;;;;;5076254;28;20069;-82
2023/12/04 02:47:58;;;;;;;1.95;0.47;;;23.50;62.20;;;;;;5071839;28;20047;-79
2023/12/04 02:50:26;;;;;;;3.58;0.70;;;23.60;61.80;;;;;;5070941;28;20039;-77
2023/12/04 02:52:53;;;;;;;2.70;0.82;;;23.70;61.20;;;;;;5066493;28;20028;-76
2023/12/04 02:55:22;;;;;;;3.70;0.88;;;23.80;61.30;;;;;;5072296;28;20039;-82
2023/12/04 02:57:50;;;;;;;8.55;0.70;;;23.80;61.80;;;;;;5076335;28;20048;-77
2023/12/04 03:00:18;;;;;;;1.55;0.70;;;23.90;62.00;;;;;;5072287;28;20090;-77
2023/12/04 03:02:46;;;;;;;3.45;0.50;;;24.00;61.30;;;;;;5076160;28;20020;-77
2023/12/04 03:05:13;;;;;;;2.30;0.55;;;24.00;61.70;;;;;;5072157;28;20088;-78
2023/12/04 03:07:41;;;;;;;4.10;0.63;;;24.00;61.70;;;;;;5071837;28;20171;-80
2023/12/04 03:10:08;;;;;;;1.25;0.52;;;24.10;60.80;;;;;;5071287;28;20104;-76
2023/12/04 03:12:36;;;;;;;3.15;0.70;;;24.20;61.20;;;;;;5055244;28;20434;-78
2023/12/04 03:15:05;;;;;;;2.17;0.63;;;24.30;60.80;;;;;;5069947;28;20059;-81
2023/12/04 03:17:32;;;;;;;1.67;0.60;;;24.30;60.90;;;;;;5069513;28;20044;-82
2023/12/04 03:19:59;;;;;;;1.60;0.60;;;24.40;59.80;;;;;;5079185;28;20024;-78
2023/12/04 03:22:27;;;;;;;4.60;0.88;;;24.50;60.60;;;;;;5091619;28;20057;-76
2023/12/04 03:24:54;;;;;;;2.63;0.70;;;24.50;58.80;;;;;;5074919;28;20054;-77
2023/12/04 03:27:21;;;;;;;1.88;0.55;;;24.60;59.10;;;;;;5075896;28;20403;-76
2023/12/04 03:29:49;;;;;;;1.45;0.50;;;24.60;59.10;;;;;;5069339;28;20031;-77
2023/12/04 03:32:16;;;;;;;1.63;0.50;;;24.60;58.60;;;;;;5069569;28;20588;-79
2023/12/04 03:34:43;;;;;;;1.65;0.55;;;24.60;59.80;;;;;;5069472;28;20020;-81
2023/12/04 03:37:13;;;;;;;2.10;0.65;;;24.60;59.30;;;;;;5072732;28;21729;-80
2023/12/04 03:39:40;;;;;;;2.10;0.52;;;24.60;59.00;;;;;;5071598;28;20137;-84
2023/12/04 03:42:08;;;;;;;1.73;0.50;;;24.60;59.00;;;;;;5068547;28;20016;-79
2023/12/04 03:44:35;;;;;;;1.85;0.60;;;24.60;58.90;;;;;;5069833;28;20060;-78
2023/12/04 03:47:02;;;;;;;5.38;0.55;;;24.60;59.70;;;;;;5071193;28;20060;-77
2023/12/04 03:49:30;;;;;;;0.57;0.40;;;24.60;59.20;;;;;;5069798;28;20028;-82
2023/12/04 03:51:57;;;;;;;2.60;0.50;;;24.60;59.70;;;;;;5071085;28;20025;-82
2023/12/04 03:54:24;;;;;;;1.27;0.60;;;24.70;59.00;;;;;;5070832;28;20016;-77
2023/12/04 03:56:53;;;;;;;2.70;0.47;;;24.70;57.70;;;;;;5070463;28;20533;-79
2023/12/04 03:59:20;;;;;;;1.13;0.68;;;24.80;57.80;;;;;;5071455;28;20494;-85
2023/12/04 04:01:48;;;;;;;1.65;0.65;;;24.80;57.90;;;;;;5069324;28;20037;-76
2023/12/04 04:04:15;;;;;;;0.90;0.50;;;24.90;58.70;;;;;;5060314;28;20133;-76
2023/12/04 04:06:42;;;;;;;4.68;1.27;;;24.90;58.90;;;;;;5067166;28;20062;-76
2023/12/04 04:09:10;;;;;;;3.00;0.93;;;24.90;56.90;;;;;;5078691;28;20107;-84
2023/12/04 04:11:37;;;;;;;1.20;0.70;;;24.90;57.60;;;;;;5069046;28;20107;-76
2023/12/04 04:14:04;;;;;;;2.45;1.00;;;25.00;57.30;;;;;;5076890;28;20107;-78
2023/12/04 04:16:32;;;;;;;3.03;1.80;;;25.00;56.90;;;;;;5067070;28;20044;-76
2023/12/04 04:18:59;;;;;;;3.80;1.08;;;25.10;56.50;;;;;;5072536;28;20112;-82
2023/12/04 04:21:26;;;;;;;1.10;0.60;;;25.20;56.30;;;;;;5069614;28;20044;-83
2023/12/04 04:23:54;;;;;;;2.28;0.70;;;25.20;56.20;;;;;;5074031;28;20071;-77
2023/12/04 04:26:21;;;;;;;3.13;0.85;;;25.20;55.60;;;;;;5074908;28;20360;-79
2023/12/04 04:28:49;;;;;;;2.95;0.80;;;25.20;55.70;;;;;;5073443;28;20036;-80
2023/12/04 04:31:16;;;;;;;1.92;0.60;;;25.20;55.30;;;;;;5074143;28;20488;-78
2023/12/04 04:33:44;;;;;;;1.80;0.45;;;25.20;55.60;;;;;;5075163;28;20467;-80
2023/12/04 04:36:11;;;;;;;2.50;0.65;;;25.20;55.80;;;;;;5074888;28;20036;-87
2023/12/04 04:38:40;;;;;;;2.95;0.52;;;25.20;55.80;;;;;;5073047;28;20020;-84
2023/12/04 04:41:13;;;;;;;3.10;0.63;;;25.20;55.40;;;;;;5075644;28;20031;-81
2023/12/04 04:43:40;;;;;;;2.22;0.60;;;25.30;55.40;;;;;;5074184;28;20134;-75
2023/12/04 04:46:08;;;;;;;1.15;0.45;;;25.30;55.50;;;;;;5074934;28;20111;-77
2023/12/04 04:48:35;;;;;;;1.55;0.50;;;25.30;55.50;;;;;;5071950;28;20020;-75
2023/12/04 04:51:03;;;;;;;0.93;0.40;;;25.30;55.60;;;;;;5054736;28;20021;-78
2023/12/04 04:53:30;;;;;;;2.00;0.55;;;25.30;55.50;;;;;;5055842;28;20037;-77
2023/12/04 04:55:58;;;;;;;2.08;0.50;;;25.30;56.10;;;;;;5056509;28;20056;-84
2023/12/04 04:58:25;;;;;;;1.65;0.50;;;25.30;56.10;;;;;;5054396;28;20029;-85
2023/12/04 05:00:52;;;;;;;1.77;0.50;;;25.40;56.50;;;;;;5071796;28;20013;-75
2023/12/04 05:03:20;;;;;;;0.60;0.52;;;25.40;55.50;;;;;;5067059;28;20387;-88
2023/12/04 05:05:47;;;;;;;0.80;0.45;;;25.40;55.60;;;;;;5053674;28;20492;-78
2023/12/04 05:08:15;;;;;;;1.23;0.57;;;25.40;55.90;;;;;;5054384;28;20559;-84
2023/12/04 05:10:42;;;;;;;1.23;0.60;;;25.40;56.20;;;;;;5053463;28;20024;-79
2023/12/04 05:13:10;;;;;;;1.38;0.60;;;25.50;55.20;;;;;;5067634;28;20388;-75
2023/12/04 05:15:37;;;;;;;1.98;0.40;;;25.50;55.60;;;;;;5073384;28;20012;-77
2023/12/04 05:18:04;;;;;;;1.63;0.57;;;25.50;55.90;;;;;;5073816;28;20460;-76
2023/12/04 05:20:36;;;;;;;1.55;0.43;;;25.50;57.00;;;;;;5072829;28;20033;-76
2023/12/04 05:23:06;;;;;;;1.08;0.50;;;25.40;55.40;;;;;;5074058;28;20013;-78
2023/12/04 05:25:33;;;;;;;1.05;0.50;;;25.40;55.50;;;;;;5074170;28;20430;-77
2023/12/04 05:28:01;;;;;;;0.40;0.40;;;25.40;55.70;;;;;;5074089;28;20082;-79
2023/12/04 05:30:28;;;;;;;0.73;0.40;;;25.40;55.70;;;;;;5074406;28;20039;-81
2023/12/04 05:32:55;;;;;;;1.98;0.50;;;25.40;55.60;;;;;;5074708;28;20378;-75
2023/12/04 05:35:24;;;;;;;1.85;0.55;;;25.50;54.40;;;;;;5074662;28;20155;-87
2023/12/04 05:37:51;;;;;;;0.32;0.32;;;25.50;55.10;;;;;;5072855;28;20017;-76
2023/12/04 05:40:22;;;;;;;0.52;0.40;;;25.50;54.60;;;;;;5075586;28;20486;-80
2023/12/04 05:42:49;;;;;;;2.78;0.57;;;25.60;54.40;;;;;;5075211;28;20472;-76
2023/12/04 05:45:16;;;;;;;2.75;0.50;;;25.60;54.30;;;;;;5054484;28;20025;-81
2023/12/04 05:47:44;;;;;;;0.52;0.40;;;25.60;54.40;;;;;;5057922;28;20057;-85
2023/12/04 05:50:11;;;;;;;2.17;0.60;;;25.70;55.30;;;;;;5064982;28;20386;-76
2023/12/04 05:52:38;;;;;;;4.95;0.65;;;25.60;55.30;;;;;;5060421;28;20029;-83
2023/12/04 05:55:06;;;;;;;1.38;0.32;;;25.70;54.60;;;;;;5068356;28;20036;-77
2023/12/04 05:57:33;;;;;;;1.48;0.68;;;25.70;55.40;;;;;;5073758;28;20034;-84
2023/12/04 06:00:01;;;;;;;0.82;0.50;;;25.70;55.70;;;;;;5074478;28;20411;-76
2023/12/04 06:02:30;;;;;;;2.20;0.45;;;25.70;55.50;;;;;;5073171;28;20035;-79
2023/12/04 06:04:57;;;;;;;2.85;0.50;;;25.70;54.60;;;;;;5073167;28;20052;-80
2023/12/04 06:07:24;;;;;;;2.22;0.40;;;25.70;54.40;;;;;;5071257;28;20511;-76
2023/12/04 06:09:52;;;;;;;3.20;0.60;;;25.70;55.30;;;;;;5069719;28;20116;-75
2023/12/04 06:12:19;;;;;;;3.03;0.55;;;25.70;55.10;;;;;;5073620;28;20398;-76
2023/12/04 06:14:46;;;;;;;3.38;1.10;;;25.70;55.00;;;;;;5073918;28;20107;-76
2023/12/04 06:17:14;;;;;;;1.38;0.60;;;25.60;55.10;;;;;;5073542;28;20494;-76
2023/12/04 06:19:42;;;;;;;2.70;0.80;;;25.60;55.10;;;;;;5073143;28;20586;-76
2023/12/04 06:22:10;;;;;;;2.80;0.60;;;25.60;55.60;;;;;;5080481;28;20035;-88
2023/12/04 06:24:37;;;;;;;2.15;0.80;;;25.60;55.70;;;;;;5080889;28;20079;-82
2023/12/04 06:27:06;;;;;;;2.63;0.70;;;25.60;56.30;;;;;;5073343;28;20043;-77
2023/12/04 06:29:34;;;;;;;1.48;0.47;;;25.60;55.50;;;;;;5072797;28;20434;-77
2023/12/04 06:32:04;;;;;;;0.82;0.47;;;25.60;55.50;;;;;;5077997;28;20356;-84
2023/12/04 06:34:32;;;;;;;1.70;0.40;;;25.60;55.50;;;;;;5080190;28;20050;-76
2023/12/04 06:37:02;;;;;;;0.73;0.40;;;25.60;55.80;;;;;;5075539;28;20024;-81
2023/12/04 06:39:33;;;;;;;2.70;0.77;;;25.50;55.30;;;;;;5073583;28;20048;-85
2023/12/04 06:42:01;;;;;;;0.85;0.50;;;25.50;55.50;;;;;;5077231;28;20024;-77
2023/12/04 06:44:28;;;;;;;1.05;0.50;;;25.50;55.10;;;;;;5076209;28;20029;-76
2023/12/04 06:47:00;;;;;;;4.15;0.60;;;25.50;54.50;;;;;;5070169;28;20032;-82
2023/12/04 06:49:33;;;;;;;0.68;0.50;;;25.40;55.00;;;;;;5073220;28;20036;-86
2023/12/04 06:52:04;;;;;;;1.00;0.50;;;25.30;54.50;;;;;;5072003;28;20017;-76
2023/12/04 06:54:32;;;;;;;1.98;0.63;;;25.40;55.40;;;;;;5072416;28;20028;-81
2023/12/04 06:56:59;;;;;;;3.70;0.90;;;25.50;55.50;;;;;;5073698;28;20024;-75
2023/12/04 06:59:27;;;;;;;2.10;1.08;;;25.40;55.20;;;;;;5073968;28;20029;-83
2023/12/04 07:01:54;;;;;;;1.75;0.70;;;25.30;55.30;;;;;;5075228;28;20017;-86
2023/12/04 07:04:22;;;;;;;1.02;0.60;;;25.30;55.60;;;;;;5073505;28;20052;-83
2023/12/04 07:06:50;;;;;;;3.33;0.65;;;25.30;56.20;;;;;;5072148;28;20040;-76
2023/12/04 07:09:18;;;;;;;2.33;0.80;;;25.40;56.00;;;;;;5073905;28;20371;-76
2023/12/04 07:11:45;;;;;;;1.63;0.70;;;25.30;55.80;;;;;;5085087;28;20028;-77
2023/12/04 07:14:12;;;;;;;1.92;0.70;;;25.30;55.90;;;;;;5071802;28;20033;-78
2023/12/04 07:16:44;;;;;;;1.52;0.60;;;25.30;55.70;;;;;;5072086;28;20021;-76
2023/12/04 07:19:13;;;;;;;2.00;0.82;;;25.20;55.40;;;;;;5073381;28;20386;-82
2023/12/04 07:21:40;;;;;;;1.20;0.50;;;25.20;55.10;;;;;;5073859;28;20020;-82
2023/12/04 07:24:08;;;;;;;1.73;0.57;;;25.20;56.30;;;;;;5071089;28;20028;-85
2023/12/04 07:26:36;;;;;;;0.60;0.45;;;25.20;56.40;;;;;;5077916;28;20098;-81
2023/12/04 07:29:04;;;;;;;1.42;0.57;;;25.30;56.40;;;;;;5074152;28;20047;-80
2023/12/04 07:31:31;;;;;;;4.13;0.60;;;25.30;55.80;;;;;;5074945;28;20029;-85
2023/12/04 07:34:01;;;;;;;1.10;0.50;;;25.30;55.40;;;;;;5073790;28;20036;-80
2023/12/04 07:36:29;;;;;;;3.53;0.60;;;25.20;56.40;;;;;;5074812;28;20043;-75
2023/12/04 07:38:59;;;;;;;1.73;0.60;;;25.10;56.90;;;;;;5065674;28;20020;-76
2023/12/04 07:41:27;;;;;;;0.50;0.50;;;25.00;55.60;;;;;;5073618;28;20032;-76
2023/12/04 07:43:54;;;;;;;2.30;0.70;;;24.90;57.00;;;;;;5076853;28;20032;-86
2023/12/04 07:46:22;;;;;;;0.75;0.50;;;24.70;57.20;;;;;;5075584;28;20028;-82
2023/12/04 07:48:49;;;;;;;2.35;0.70;;;24.70;57.90;;;;;;5075762;28;20079;-85
2023/12/04 07:51:16;;;;;;;2.10;0.60;;;24.60;58.40;;;;;;5076827;28;20031;-81
2023/12/04 07:53:44;;;;;;;2.17;0.60;;;24.50;57.70;;;;;;5075371;28;20121;-92
2023/12/04 07:56:13;;;;;;;1.35;0.75;;;24.40;57.70;;;;;;5076339;28;20115;-81
2023/12/04 07:58:40;;;;;;;2.35;1.10;;;24.30;57.90;;;;;;5074114;28;20073;-81
2023/12/04 08:01:08;;;;;;;3.25;1.15;;;24.20;58.30;;;;;;5074237;28;20111;-83
2023/12/04 08:03:35;;;;;;;3.60;1.63;;;24.20;59.20;;;;;;5072899;28;20070;-86
2023/12/04 08:06:03;;;;;;;3.05;0.77;;;24.10;59.40;;;;;;5073389;28;20036;-87
2023/12/04 08:08:31;;;;;;;1.17;1.00;;;24.00;59.50;;;;;;5073510;28;20586;-85
2023/12/04 08:10:59;;;;;;;2.05;0.90;;;23.90;59.30;;;;;;5073715;28;20050;-89
2023/12/04 08:13:29;;;;;;;1.70;0.70;;;23.80;59.70;;;;;;5077930;28;20162;-87
2023/12/04 08:15:56;;;;;;;1.88;0.90;;;23.70;60.30;;;;;;5080987;28;20032;-85
2023/12/04 08:18:24;;;;;;;1.75;0.90;;;23.60;60.50;;;;;;5077558;28;20404;-78
2023/12/04 08:20:52;;;;;;;2.97;1.10;;;23.50;60.90;;;;;;5065811;28;20027;-91
2023/12/04 08:23:20;;;;;;;4.43;1.77;;;23.40;60.90;;;;;;5076138;28;20037;-79
2023/12/04 08:25:48;;;;;;;2.28;1.27;;;23.40;61.00;;;;;;5075405;28;20472;-87
2023/12/04 08:28:15;;;;;;;1.15;0.80;;;23.20;61.00;;;;;;5075173;28;20044;-77
2023/12/04 08:30:42;;;;;;;1.05;0.80;;;23.30;61.50;;;;;;5076391;28;20024;-79
2023/12/04 08:33:10;;;;;;;3.15;0.90;;;23.20;62.40;;;;;;5076553;28;20043;-77
2023/12/04 08:35:37;;;;;;;4.32;1.35;;;23.20;62.70;;;;;;5076345;28;20017;-80
2023/12/04 08:38:05;;;;;;;2.83;1.17;;;23.10;62.50;;;;;;5073969;28;20480;-80
2023/12/04 08:40:32;;;;;;;4.03;0.85;;;23.10;63.00;;;;;;5076834;28;20032;-77
2023/12/04 08:43:00;;;;;;;3.40;1.17;;;23.10;63.20;;;;;;5075689;28;20479;-76
2023/12/04 08:45:27;;;;;;;3.60;0.80;;;22.90;62.90;;;;;;5076230;28;20032;-77
2023/12/04 08:47:54;;;;;;;2.53;0.70;;;22.90;63.20;;;;;;5073694;28;20033;-80
2023/12/04 08:50:22;;;;;;;2.50;0.60;;;22.80;63.40;;;;;;5075457;28;20108;-78
2023/12/04 08:52:49;;;;;;;2.38;0.98;;;22.80;63.60;;;;;;5075284;28;20024;-78
2023/12/04 08:55:19;;;;;;;2.13;0.80;;;22.80;63.50;;;;;;5074706;28;20021;-83
2023/12/04 08:57:47;;;;;;;2.20;0.85;;;22.80;63.50;;;;;;5073940;28;20016;-80
2023/12/04 09:00:15;;;;;;;3.03;0.80;;;22.70;64.10;;;;;;5057804;28;20472;-77
2023/12/04 09:02:42;;;;;;;2.65;0.77;;;22.70;64.20;;;;;;5055079;28;20052;-77
2023/12/04 09:05:10;;;;;;;1.33;0.50;;;22.60;64.50;;;;;;5055082;28;20508;-84
2023/12/04 09:07:37;;;;;;;3.40;0.90;;;22.50;64.80;;;;;;5056006;28;20480;-85
2023/12/04 09:10:05;;;;;;;3.78;0.90;;;22.50;65.40;;;;;;5055137;28;20036;-80
2023/12/04 09:12:35;;;;;;;2.35;0.70;;;22.50;65.20;;;;;;5055697;28;20174;-79
2023/12/04 09:15:03;;;;;;;2.95;0.80;;;22.40;65.60;;;;;;5055577;28;20060;-79
2023/12/04 09:17:31;;;;;;;2.67;0.85;;;22.40;65.50;;;;;;5071541;28;20029;-83
2023/12/04 09:19:59;;;;;;;3.60;1.20;;;22.40;65.40;;;;;;5055908;28;20495;-80
2023/12/04 09:22:26;;;;;;;2.67;1.20;;;22.40;65.60;;;;;;5056536;28;20032;-79
2023/12/04 09:24:54;;;;;;;3.22;0.95;;;22.30;65.80;;;;;;5055515;28;20028;-79
2023/12/04 09:27:22;;;;;;;1.98;0.70;;;22.30;66.20;;;;;;5055678;28;20048;-76
2023/12/04 09:29:50;;;;;;;1.67;0.60;;;22.30;65.90;;;;;;5055209;28;20025;-81
2023/12/04 09:32:18;;;;;;;2.97;0.60;;;22.20;66.00;;;;;;5057291;28;20104;-79
2023/12/04 09:34:46;;;;;;;0.93;0.50;;;22.20;66.20;;;;;;5058125;28;20053;-80
2023/12/04 09:37:14;;;;;;;1.27;0.70;;;22.20;66.40;;;;;;5056593;28;20032;-87
2023/12/04 09:39:42;;;;;;;3.85;0.90;;;22.20;66.70;;;;;;5057220;28;20028;-76
2023/12/04 09:42:09;;;;;;;5.47;0.90;;;22.10;66.70;;;;;;5055679;28;20033;-77
2023/12/04 09:44:38;;;;;;;1.70;0.77;;;22.10;66.80;;;;;;5057340;28;20048;-82
2023/12/04 09:47:07;;;;;;;1.60;0.80;;;22.00;66.80;;;;;;5056096;28;20037;-81
2023/12/04 09:49:35;;;;;;;2.92;1.00;;;22.00;67.00;;;;;;5056709;28;20373;-76
2023/12/04 09:52:03;;;;;;;4.53;1.08;;;21.90;67.40;;;;;;5058832;28;20032;-84
2023/12/04 09:54:32;;;;;;;2.63;0.90;;;22.00;67.70;;;;;;5055127;28;20388;-85
2023/12/04 09:56:59;;;;;;;2.05;1.05;;;22.00;67.60;;;;;;5055676;28;20480;-76
2023/12/04 09:59:29;;;;;;;2.10;0.82;;;21.90;67.70;;;;;;5064763;28;20024;-77
2023/12/04 10:01:57;;;;;;;4.05;0.65;;;21.90;67.50;;;;;;5075927;28;20142;-80
2023/12/04 10:04:25;;;;;;;3.03;0.80;;;21.90;67.80;;;;;;5074983;28;20049;-82
2023/12/04 10:06:53;;;;;;;2.30;0.80;;;21.90;68.00;;;;;;5070321;28;20033;-77
2023/12/04 10:09:22;;;;;;;2.08;0.75;;;21.80;68.30;;;;;;5073777;28;20089;-76
2023/12/04 10:11:51;;;;;;;4.03;0.95;;;21.80;68.40;;;;;;5073436;28;20032;-76
2023/12/04 10:14:20;;;;;;;1.60;0.70;;;21.80;68.10;;;;;;5073463;28;20051;-76
2023/12/04 10:16:49;;;;;;;3.50;1.55;;;21.80;68.20;;;;;;5073630;28;20016;-79
2023/12/04 10:19:31;;;;;;;4.22;0.80;;;21.80;68.30;;;;;;5073597;28;20031;-88
2023/12/04 10:21:59;;;;;;;1.95;0.70;;;21.80;68.40;;;;;;5060891;28;20029;-88
2023/12/04 10:24:39;;;;;;;2.83;0.77;;;21.80;68.60;;;;;;5054647;28;20025;-80
2023/12/04 10:27:11;;;;;;;3.40;0.93;;;21.80;68.60;;;;;;5053607;28;20037;-85
2023/12/04 10:29:50;;;;;;;3.10;0.82;;;21.70;68.80;;;;;;5053927;28;20033;-87
2023/12/04 10:32:24;;;;;;;1.42;0.70;;;21.70;69.00;;;;;;5054404;28;20465;-85
2023/12/04 10:34:51;;;;;;;2.47;0.68;;;21.70;69.00;;;;;;5069483;28;20357;-78
2023/12/04 10:37:20;;;;;;;4.25;1.00;;;21.70;69.30;;;;;;5065726;28;20066;-85
2023/12/04 10:39:53;;;;;;;2.33;0.88;;;21.70;69.30;;;;;;5073811;28;20028;-76
2023/12/04 10:42:29;;;;;;;2.65;1.15;;;21.70;69.50;;;;;;5077228;28;20122;-77
2023/12/04 10:44:59;;;;;;;5.10;1.30;;;21.70;69.60;;;;;;5072373;28;20047;-85
2023/12/04 10:47:30;;;;;;;6.03;1.00;;;21.60;69.60;;;;;;5067284;28;20066;-76
2023/12/04 10:49:58;;;;;;;2.92;0.90;;;21.60;69.70;;;;;;5070059;28;20032;-75
2023/12/04 10:52:26;;;;;;;1.58;0.90;;;21.60;69.90;;;;;;5060136;28;20028;-83
2023/12/04 10:54:53;;;;;;;3.80;0.70;;;21.60;70.10;;;;;;5075914;28;20020;-76
2023/12/04 10:57:28;;;;;;;1.63;0.60;;;21.60;70.20;;;;;;5072272;28;20017;-78
2023/12/04 11:00:05;;;;;;;2.72;0.95;;;21.70;69.20;;;;;;5069061;28;20446;-75
2023/12/04 11:02:40;;;;;;;1.48;0.63;;;21.60;69.10;;;;;;5079682;28;20028;-78
2023/12/04 11:05:17;;;;;;;2.27;0.63;;;21.60;69.20;;;;;;5077996;28;20037;-76
2023/12/04 11:07:59;;;;;;;2.33;0.70;;;21.50;69.20;;;;;;5071778;28;20055;-76
2023/12/04 11:10:29;;;;;;;2.45;0.70;;;21.50;69.90;;;;;;5071127;28;20051;-76
2023/12/04 11:13:21;;;;;;;3.33;0.70;;;21.50;69.80;;;;;;5067708;28;20032;-76
2023/12/04 11:15:52;;;;;;;1.90;0.57;;;21.40;69.90;;;;;;5052105;28;20030;-76
2023/12/04 11:18:24;;;;;;;3.13;0.70;;;21.40;70.20;;;;;;5080663;28;20491;-86
2023/12/04 11:21:03;;;;;;;1.70;0.68;;;21.50;70.00;;;;;;5075666;28;20033;-77
2023/12/04 11:23:32;;;;;;;4.35;0.77;;;21.40;70.00;;;;;;5082388;28;20052;-76
2023/12/04 11:26:00;;;;;;;2.72;0.73;;;21.40;69.70;;;;;;5076420;28;20040;-78
2023/12/04 11:28:29;;;;;;;2.53;0.90;;;21.40;69.80;;;;;;5079917;28;20021;-76
2023/12/04 11:30:57;;;;;;;1.80;0.75;;;21.40;69.40;;;;;;5082038;28;20016;-78
2023/12/04 11:33:25;;;;;;;2.40;0.57;;;21.40;69.20;;;;;;5075805;28;20016;-77
2023/12/04 11:35:52;;;;;;;3.40;0.80;;;21.30;69.30;;;;;;5077151;28;20344;-77
2023/12/04 11:38:19;;;;;;;3.25;0.70;;;21.30;69.60;;;;;;5075067;28;20032;-77
2023/12/04 11:40:49;;;;;;;1.58;0.60;;;21.30;69.50;;;;;;5074954;28;20016;-76
2023/12/04 11:43:27;;;;;;;2.03;0.73;;;21.30;69.80;;;;;;5074738;28;20166;-77
2023/12/04 11:46:08;;;;;;;2.03;0.70;;;21.30;69.90;;;;;;5080139;28;20084;-77
2023/12/04 11:48:37;;;;;;;1.85;0.50;;;21.20;69.90;;;;;;5073439;28;20028;-78
2023/12/04 11:51:08;;;;;;;1.15;0.60;;;21.30;70.00;;;;;;5072861;28;20019;-77
2023/12/04 11:53:41;;;;;;;0.57;0.50;;;21.30;70.10;;;;;;5071684;28;20476;-77
2023/12/04 11:56:12;;;;;;;3.80;0.70;;;21.20;70.40;;;;;;5074692;28;20040;-76
2023/12/04 11:58:47;;;;;;;1.65;0.50;;;21.20;70.50;;;;;;5072992;28;20490;-76
2023/12/04 12:01:18;;;;;;;2.13;0.50;;;21.20;70.70;;;;;;5075934;28;20034;-84
2023/12/04 12:03:50;;;;;;;1.88;0.50;;;21.20;70.80;;;;;;5071559;28;20016;-77
2023/12/04 12:06:17;;;;;;;1.02;0.43;;;21.20;70.90;;;;;;5077492;28;20106;-77
2023/12/04 12:08:45;;;;;;;3.15;0.82;;;21.20;70.80;;;;;;5082182;28;20116;-77
2023/12/04 12:11:13;;;;;;;1.70;0.73;;;21.20;70.60;;;;;;5073997;28;20056;-76
2023/12/04 12:13:42;;;;;;;1.05;0.45;;;21.10;70.70;;;;;;5073693;28;20379;-76
2023/12/04 12:16:11;;;;;;;1.88;0.90;;;21.10;70.80;;;;;;5073047;28;20028;-76
2023/12/04 12:18:40;;;;;;;1.85;0.68;;;21.10;70.80;;;;;;5072723;28;20090;-77
2023/12/04 12:21:08;;;;;;;5.28;0.70;;;21.00;70.90;;;;;;5070590;28;20451;-76
2023/12/04 12:23:36;;;;;;;1.92;1.00;;;21.00;71.00;;;;;;5070658;28;20021;-76
2023/12/04 12:26:04;;;;;;;2.03;0.50;;;21.00;71.00;;;;;;5072527;28;20047;-82
2023/12/04 12:28:31;;;;;;;1.67;0.60;;;21.00;71.10;;;;;;5076173;28;20086;-76
2023/12/04 12:31:05;;;;;;;1.35;0.70;;;21.00;71.10;;;;;;5076581;28;20031;-76
2023/12/04 12:33:33;;;;;;;1.52;0.60;;;21.00;71.40;;;;;;5070318;28;20360;-76
2023/12/04 12:36:03;;;;;;;3.47;0.68;;;21.00;71.70;;;;;;5073793;28;20427;-77
2023/12/04 12:38:35;;;;;;;2.13;0.70;;;20.90;71.60;;;;;;5072900;28;20024;-76
2023/12/04 12:41:07;;;;;;;2.50;1.13;;;20.90;71.50;;;;;;5073029;28;20029;-77
2023/12/04 12:43:35;;;;;;;3.20;0.57;;;20.90;71.60;;;;;;5072385;28;20021;-76
2023/12/04 12:46:05;;;;;;;2.50;0.77;;;20.90;71.60;;;;;;5074571;28;20033;-77
2023/12/04 12:48:33;;;;;;;3.47;0.60;;;20.80;71.80;;;;;;5073427;28;20024;-77
2023/12/04 12:51:03;;;;;;;1.55;0.57;;;20.80;72.30;;;;;;5071979;28;20024;-76
2023/12/04 12:53:33;;;;;;;1.65;0.68;;;20.80;72.00;;;;;;5074014;28;20024;-77
2023/12/04 12:56:01;;;;;;;1.63;0.63;;;20.80;72.00;;;;;;5074260;28;20021;-76